SWA5005 KOMA-KSTL
Flight info
| Callsign | SWA5005 |
|---|---|
| Flight time | 0h 48m |
| Altitude | 35000 |
| Route | LMN IRK LORLE3 |
| Aircraft | B737/M-SDE2E3GIJ4RWZ/LB1D1 |
Departure
| Time | 2026-05-05 21:54 |
|---|---|
| Airport | Eppley Airfield (KOMA) |
Arrival
| Time | 2026-05-05 22:42 |
|---|---|
| Airport | St. Louis Lambert International Airport (KSTL) |
| Time | Latitude | Longitude | Altitude | Speed | Heading |
|---|---|---|---|---|---|
| 2026-05-05 21:18 | 41.30099 | -95.89780 | 984 ft | 0 kts | 274° |
| 2026-05-05 21:46 | 41.30098 | -95.89769 | 984 ft | 4 kts | 274° |
| 2026-05-05 21:46 | 41.30097 | -95.89740 | 989 ft | 3 kts | 274° |
| 2026-05-05 21:47 | 41.30095 | -95.89706 | 991 ft | 2 kts | 274° |
| 2026-05-05 21:47 | 41.30095 | -95.89704 | 985 ft | 1 kts | 274° |
| 2026-05-05 21:50 | 41.30095 | -95.89706 | 985 ft | 1 kts | 272° |
| 2026-05-05 21:50 | 41.30090 | -95.89709 | 991 ft | 1 kts | 207° |
| 2026-05-05 21:50 | 41.30082 | -95.89706 | 990 ft | 2 kts | 167° |
| 2026-05-05 21:50 | 41.30051 | -95.89696 | 988 ft | 8 kts | 168° |
| 2026-05-05 21:51 | 41.30006 | -95.89655 | 988 ft | 9 kts | 103° |
| 2026-05-05 21:51 | 41.29959 | -95.89609 | 985 ft | 9 kts | 172° |
| 2026-05-05 21:51 | 41.29878 | -95.89609 | 987 ft | 15 kts | 182° |
| 2026-05-05 21:51 | 41.29742 | -95.89609 | 988 ft | 24 kts | 179° |
| 2026-05-05 21:52 | 41.29396 | -95.89615 | 984 ft | 23 kts | 176° |
| 2026-05-05 21:52 | 41.29238 | -95.89610 | 984 ft | 22 kts | 181° |
| 2026-05-05 21:52 | 41.29115 | -95.89580 | 986 ft | 14 kts | 114° |
| 2026-05-05 21:53 | 41.29126 | -95.89467 | 987 ft | 12 kts | 24° |
| 2026-05-05 21:53 | 41.29230 | -95.89464 | 989 ft | 29 kts | 359° |
| 2026-05-05 21:53 | 41.29684 | -95.89465 | 987 ft | 100 kts | 0° |
| 2026-05-05 21:53 | 41.30578 | -95.89484 | 1031 ft | 151 kts | 355° |
| 2026-05-05 21:54 | 41.31663 | -95.89437 | 1701 ft | 157 kts | 2° |
| 2026-05-05 21:54 | 41.32739 | -95.89304 | 2648 ft | 150 kts | 1° |
| 2026-05-05 21:54 | 41.33788 | -95.89204 | 3320 ft | 162 kts | 0° |
| 2026-05-05 21:54 | 41.35024 | -95.89106 | 3646 ft | 191 kts | 0° |
| 2026-05-05 21:55 | 41.36419 | -95.89014 | 4068 ft | 207 kts | 360° |
| 2026-05-05 21:55 | 41.37894 | -95.88860 | 4603 ft | 221 kts | 13° |
| 2026-05-05 21:55 | 41.39180 | -95.87658 | 5286 ft | 240 kts | 51° |
| 2026-05-05 21:55 | 41.39739 | -95.85469 | 5763 ft | 269 kts | 86° |
| 2026-05-05 21:56 | 41.39279 | -95.82995 | 6465 ft | 283 kts | 113° |
| 2026-05-05 21:56 | 41.38378 | -95.80621 | 7229 ft | 292 kts | 117° |
| 2026-05-05 21:56 | 41.37397 | -95.78238 | 8159 ft | 296 kts | 118° |
| 2026-05-05 21:56 | 41.36379 | -95.75819 | 8963 ft | 304 kts | 119° |
| 2026-05-05 21:57 | 41.35330 | -95.73340 | 9803 ft | 312 kts | 119° |
| 2026-05-05 21:57 | 41.34265 | -95.70820 | 10475 ft | 324 kts | 120° |
| 2026-05-05 21:57 | 41.33117 | -95.68091 | 10763 ft | 349 kts | 120° |
| 2026-05-05 21:57 | 41.31911 | -95.65219 | 11410 ft | 360 kts | 120° |
| 2026-05-05 21:58 | 41.30682 | -95.62290 | 12231 ft | 365 kts | 121° |
| 2026-05-05 21:58 | 41.29438 | -95.59318 | 13084 ft | 370 kts | 121° |
| 2026-05-05 21:58 | 41.28171 | -95.56296 | 13912 ft | 376 kts | 122° |
| 2026-05-05 21:58 | 41.26888 | -95.53232 | 14654 ft | 382 kts | 122° |
| 2026-05-05 21:59 | 41.25586 | -95.50127 | 15469 ft | 387 kts | 122° |
| 2026-05-05 21:59 | 41.24269 | -95.46988 | 16289 ft | 392 kts | 123° |
| 2026-05-05 21:59 | 41.22932 | -95.43802 | 17062 ft | 398 kts | 123° |
| 2026-05-05 21:59 | 41.21576 | -95.40571 | 17857 ft | 403 kts | 123° |
| 2026-05-05 22:00 | 41.20203 | -95.37306 | 18590 ft | 408 kts | 124° |
| 2026-05-05 22:00 | 41.18808 | -95.33994 | 19331 ft | 412 kts | 124° |
| 2026-05-05 22:00 | 41.17405 | -95.30665 | 20062 ft | 415 kts | 124° |
| 2026-05-05 22:00 | 41.15989 | -95.27306 | 20775 ft | 419 kts | 124° |
| 2026-05-05 22:01 | 41.14557 | -95.23915 | 21453 ft | 424 kts | 125° |
| 2026-05-05 22:01 | 41.13105 | -95.20479 | 22160 ft | 428 kts | 125° |
| 2026-05-05 22:01 | 41.11640 | -95.17017 | 22838 ft | 432 kts | 125° |
| 2026-05-05 22:01 | 41.10160 | -95.13527 | 23496 ft | 437 kts | 126° |
| 2026-05-05 22:02 | 41.08681 | -95.10045 | 24090 ft | 439 kts | 126° |
| 2026-05-05 22:02 | 41.07169 | -95.06490 | 24521 ft | 447 kts | 126° |
| 2026-05-05 22:02 | 41.05623 | -95.02865 | 24914 ft | 454 kts | 127° |
| 2026-05-05 22:02 | 41.04059 | -94.99196 | 25414 ft | 460 kts | 127° |
| 2026-05-05 22:03 | 41.02481 | -94.95495 | 25895 ft | 464 kts | 127° |
| 2026-05-05 22:03 | 41.00886 | -94.91756 | 26367 ft | 469 kts | 128° |
| 2026-05-05 22:03 | 40.99271 | -94.87975 | 26817 ft | 474 kts | 128° |
| 2026-05-05 22:03 | 40.97636 | -94.84156 | 27272 ft | 479 kts | 128° |
| 2026-05-05 22:04 | 40.95985 | -94.80300 | 27703 ft | 484 kts | 128° |
| 2026-05-05 22:04 | 40.94315 | -94.76408 | 28127 ft | 489 kts | 129° |
| 2026-05-05 22:04 | 40.92628 | -94.72482 | 28551 ft | 493 kts | 129° |
| 2026-05-05 22:04 | 40.90924 | -94.68519 | 28987 ft | 497 kts | 129° |
| 2026-05-05 22:05 | 40.89208 | -94.64535 | 29398 ft | 501 kts | 129° |
| 2026-05-05 22:05 | 40.87475 | -94.60517 | 29824 ft | 505 kts | 129° |
| 2026-05-05 22:05 | 40.85726 | -94.56468 | 30193 ft | 509 kts | 129° |
| 2026-05-05 22:05 | 40.83963 | -94.52387 | 30503 ft | 513 kts | 129° |
| 2026-05-05 22:06 | 40.82184 | -94.48274 | 30788 ft | 518 kts | 129° |
| 2026-05-05 22:06 | 40.80393 | -94.44144 | 31101 ft | 521 kts | 129° |
| 2026-05-05 22:06 | 40.78587 | -94.39982 | 31439 ft | 523 kts | 129° |
| 2026-05-05 22:06 | 40.76781 | -94.35824 | 31813 ft | 524 kts | 129° |
| 2026-05-05 22:07 | 40.74960 | -94.31641 | 32188 ft | 526 kts | 129° |
| 2026-05-05 22:07 | 40.73139 | -94.27462 | 32566 ft | 526 kts | 129° |
| 2026-05-05 22:07 | 40.71314 | -94.23279 | 32931 ft | 527 kts | 129° |
| 2026-05-05 22:07 | 40.69484 | -94.19093 | 33292 ft | 528 kts | 129° |
| 2026-05-05 22:08 | 40.67647 | -94.14898 | 33674 ft | 528 kts | 129° |
| 2026-05-05 22:08 | 40.65831 | -94.10754 | 33992 ft | 530 kts | 129° |
| 2026-05-05 22:08 | 40.63962 | -94.06494 | 34258 ft | 531 kts | 129° |
| 2026-05-05 22:08 | 40.62133 | -94.02331 | 34549 ft | 532 kts | 129° |
| 2026-05-05 22:09 | 40.60280 | -93.98117 | 34871 ft | 532 kts | 128° |
| 2026-05-05 22:09 | 40.57057 | -93.89210 | 34940 ft | 542 kts | 121° |
| 2026-05-05 22:10 | 40.54142 | -93.80116 | 34932 ft | 537 kts | 120° |
| 2026-05-05 22:10 | 40.51223 | -93.71072 | 34943 ft | 537 kts | 121° |
| 2026-05-05 22:11 | 40.48257 | -93.62065 | 34938 ft | 537 kts | 121° |
| 2026-05-05 22:11 | 40.45270 | -93.53085 | 34931 ft | 536 kts | 121° |
| 2026-05-05 22:12 | 40.42278 | -93.44126 | 34945 ft | 536 kts | 121° |
| 2026-05-05 22:12 | 40.39280 | -93.35174 | 34943 ft | 536 kts | 121° |
| 2026-05-05 22:13 | 40.36277 | -93.26226 | 34946 ft | 536 kts | 120° |
| 2026-05-05 22:13 | 40.33269 | -93.17273 | 34947 ft | 537 kts | 120° |
| 2026-05-05 22:14 | 40.30240 | -93.08313 | 34932 ft | 538 kts | 120° |
| 2026-05-05 22:14 | 40.27221 | -92.99376 | 34929 ft | 536 kts | 120° |
| 2026-05-05 22:15 | 40.24193 | -92.90466 | 34932 ft | 535 kts | 120° |
| 2026-05-05 22:15 | 40.21184 | -92.81628 | 34952 ft | 534 kts | 120° |
| 2026-05-05 22:16 | 40.18157 | -92.72689 | 34940 ft | 534 kts | 120° |
| 2026-05-05 22:16 | 40.15096 | -92.63839 | 34955 ft | 534 kts | 120° |
| 2026-05-05 22:17 | 40.11964 | -92.55121 | 34952 ft | 533 kts | 123° |
| 2026-05-05 22:17 | 40.08400 | -92.46636 | 34953 ft | 532 kts | 126° |
| 2026-05-05 22:18 | 40.04746 | -92.38241 | 34941 ft | 533 kts | 126° |
| 2026-05-05 22:18 | 40.01136 | -92.29795 | 34939 ft | 533 kts | 125° |
| 2026-05-05 22:19 | 39.97562 | -92.21328 | 34952 ft | 533 kts | 125° |
| 2026-05-05 22:19 | 39.93972 | -92.12853 | 34939 ft | 534 kts | 124° |
| 2026-05-05 22:20 | 39.90393 | -92.04388 | 34943 ft | 532 kts | 125° |
| 2026-05-05 22:20 | 39.86796 | -91.95978 | 34935 ft | 531 kts | 125° |
| 2026-05-05 22:21 | 39.83203 | -91.87566 | 34932 ft | 532 kts | 124° |
| 2026-05-05 22:21 | 39.79601 | -91.79142 | 34880 ft | 533 kts | 124° |
| 2026-05-05 22:21 | 39.77785 | -91.74903 | 34220 ft | 539 kts | 124° |
| 2026-05-05 22:22 | 39.75957 | -91.70650 | 33488 ft | 539 kts | 124° |
| 2026-05-05 22:22 | 39.74131 | -91.66394 | 32685 ft | 539 kts | 124° |
| 2026-05-05 22:22 | 39.72305 | -91.62157 | 31903 ft | 538 kts | 124° |
| 2026-05-05 22:22 | 39.70500 | -91.57982 | 31101 ft | 536 kts | 124° |
| 2026-05-05 22:23 | 39.68683 | -91.53774 | 30447 ft | 530 kts | 124° |
| 2026-05-05 22:23 | 39.66891 | -91.49625 | 29812 ft | 523 kts | 124° |
| 2026-05-05 22:23 | 39.65122 | -91.45537 | 29113 ft | 516 kts | 124° |
| 2026-05-05 22:23 | 39.63378 | -91.41513 | 28637 ft | 504 kts | 123° |
| 2026-05-05 22:24 | 39.61685 | -91.37614 | 28161 ft | 493 kts | 124° |
| 2026-05-05 22:24 | 39.60010 | -91.33767 | 27626 ft | 485 kts | 124° |
| 2026-05-05 22:24 | 39.58358 | -91.29974 | 27020 ft | 480 kts | 124° |
| 2026-05-05 22:24 | 39.56725 | -91.26230 | 26538 ft | 474 kts | 123° |
| 2026-05-05 22:25 | 39.55113 | -91.22536 | 25965 ft | 468 kts | 123° |
| 2026-05-05 22:25 | 39.53518 | -91.18884 | 25405 ft | 463 kts | 123° |
| 2026-05-05 22:25 | 39.51939 | -91.15278 | 24841 ft | 457 kts | 124° |
| 2026-05-05 22:25 | 39.50383 | -91.11700 | 24302 ft | 455 kts | 123° |
| 2026-05-05 22:26 | 39.48844 | -91.08143 | 23720 ft | 450 kts | 123° |
| 2026-05-05 22:26 | 39.47300 | -91.04651 | 23068 ft | 445 kts | 123° |
| 2026-05-05 22:26 | 39.45768 | -91.01200 | 22460 ft | 438 kts | 123° |
| 2026-05-05 22:26 | 39.44264 | -90.97796 | 21885 ft | 430 kts | 123° |
| 2026-05-05 22:27 | 39.42749 | -90.94504 | 21237 ft | 423 kts | 131° |
| 2026-05-05 22:27 | 39.40727 | -90.91835 | 20709 ft | 408 kts | 150° |
| 2026-05-05 22:27 | 39.38333 | -90.89960 | 20186 ft | 401 kts | 155° |
| 2026-05-05 22:27 | 39.35939 | -90.88120 | 19612 ft | 400 kts | 154° |
| 2026-05-05 22:28 | 39.33577 | -90.86249 | 19059 ft | 398 kts | 153° |
| 2026-05-05 22:28 | 39.31228 | -90.84359 | 18484 ft | 398 kts | 153° |
| 2026-05-05 22:28 | 39.28921 | -90.82457 | 17869 ft | 398 kts | 152° |
| 2026-05-05 22:28 | 39.26588 | -90.80465 | 17269 ft | 396 kts | 152° |
| 2026-05-05 22:29 | 39.24308 | -90.78504 | 16682 ft | 392 kts | 152° |
| 2026-05-05 22:29 | 39.22070 | -90.76583 | 16122 ft | 389 kts | 152° |
| 2026-05-05 22:29 | 39.19825 | -90.74668 | 15628 ft | 385 kts | 152° |
| 2026-05-05 22:29 | 39.17598 | -90.72769 | 15092 ft | 382 kts | 152° |
| 2026-05-05 22:30 | 39.15380 | -90.70886 | 14541 ft | 379 kts | 153° |
| 2026-05-05 22:30 | 39.13186 | -90.69000 | 13891 ft | 381 kts | 152° |
| 2026-05-05 22:30 | 39.10999 | -90.67091 | 13292 ft | 378 kts | 152° |
| 2026-05-05 22:30 | 39.08841 | -90.65202 | 12719 ft | 373 kts | 151° |
| 2026-05-05 22:31 | 39.06708 | -90.63337 | 12181 ft | 367 kts | 151° |
| 2026-05-05 22:31 | 39.04605 | -90.61505 | 11619 ft | 362 kts | 151° |
| 2026-05-05 22:31 | 39.02527 | -90.59700 | 11093 ft | 357 kts | 151° |
| 2026-05-05 22:31 | 39.00506 | -90.57932 | 10772 ft | 346 kts | 150° |
| 2026-05-05 22:32 | 38.98551 | -90.56205 | 10485 ft | 335 kts | 150° |
| 2026-05-05 22:32 | 38.96657 | -90.54531 | 10216 ft | 326 kts | 150° |
| 2026-05-05 22:32 | 38.94816 | -90.52907 | 9961 ft | 315 kts | 151° |
| 2026-05-05 22:32 | 38.93063 | -90.51357 | 9957 ft | 297 kts | 151° |
| 2026-05-05 22:33 | 38.91501 | -90.49590 | 9490 ft | 305 kts | 131° |
| 2026-05-05 22:33 | 38.90724 | -90.48093 | 9318 ft | 303 kts | 127° |
| 2026-05-05 22:33 | 38.89618 | -90.45808 | 9018 ft | 299 kts | 126° |
| 2026-05-05 22:33 | 38.88538 | -90.43564 | 8764 ft | 293 kts | 126° |
| 2026-05-05 22:34 | 38.87470 | -90.41368 | 8519 ft | 286 kts | 127° |
| 2026-05-05 22:34 | 38.86419 | -90.39226 | 8280 ft | 280 kts | 127° |
| 2026-05-05 22:34 | 38.85392 | -90.37145 | 8140 ft | 272 kts | 127° |
| 2026-05-05 22:34 | 38.84391 | -90.35107 | 7766 ft | 272 kts | 127° |
| 2026-05-05 22:35 | 38.83385 | -90.33045 | 7414 ft | 273 kts | 127° |
| 2026-05-05 22:35 | 38.82379 | -90.30982 | 7048 ft | 273 kts | 127° |
| 2026-05-05 22:35 | 38.81366 | -90.28924 | 6723 ft | 273 kts | 127° |
| 2026-05-05 22:35 | 38.80346 | -90.26873 | 6397 ft | 273 kts | 127° |
| 2026-05-05 22:36 | 38.79325 | -90.24826 | 6060 ft | 272 kts | 128° |
| 2026-05-05 22:36 | 38.78310 | -90.22789 | 5668 ft | 274 kts | 128° |
| 2026-05-05 22:36 | 38.77289 | -90.20745 | 5368 ft | 271 kts | 128° |
| 2026-05-05 22:36 | 38.76282 | -90.18728 | 5127 ft | 263 kts | 128° |
| 2026-05-05 22:37 | 38.75240 | -90.16922 | 5014 ft | 242 kts | 142° |
| 2026-05-05 22:37 | 38.73901 | -90.15833 | 4882 ft | 217 kts | 167° |
| 2026-05-05 22:37 | 38.72499 | -90.15602 | 4775 ft | 193 kts | 191° |
| 2026-05-05 22:37 | 38.71247 | -90.15935 | 4671 ft | 176 kts | 202° |
| 2026-05-05 22:38 | 38.70166 | -90.16611 | 4338 ft | 173 kts | 216° |
| 2026-05-05 22:38 | 38.69281 | -90.17622 | 4119 ft | 163 kts | 230° |
| 2026-05-05 22:38 | 38.68691 | -90.18793 | 3967 ft | 153 kts | 243° |
| 2026-05-05 22:38 | 38.68360 | -90.20085 | 3668 ft | 153 kts | 256° |
| 2026-05-05 22:39 | 38.68289 | -90.21443 | 3305 ft | 159 kts | 269° |
| 2026-05-05 22:39 | 38.68500 | -90.22841 | 3008 ft | 161 kts | 284° |
| 2026-05-05 22:39 | 38.68986 | -90.24137 | 2722 ft | 163 kts | 296° |
| 2026-05-05 22:39 | 38.69590 | -90.25340 | 2476 ft | 159 kts | 297° |
| 2026-05-05 22:40 | 38.70184 | -90.26544 | 2135 ft | 160 kts | 296° |
| 2026-05-05 22:40 | 38.70779 | -90.27741 | 1819 ft | 156 kts | 296° |
| 2026-05-05 22:40 | 38.71336 | -90.28856 | 1519 ft | 143 kts | 300° |
| 2026-05-05 22:40 | 38.71839 | -90.29887 | 1322 ft | 135 kts | 301° |
| 2026-05-05 22:41 | 38.72339 | -90.30914 | 1136 ft | 137 kts | 303° |
| 2026-05-05 22:41 | 38.72853 | -90.31950 | 988 ft | 136 kts | 305° |
| 2026-05-05 22:41 | 38.73340 | -90.32947 | 805 ft | 129 kts | 307° |
| 2026-05-05 22:41 | 38.73838 | -90.33922 | 645 ft | 133 kts | 306° |
| 2026-05-05 22:42 | 38.74315 | -90.34874 | 587 ft | 111 kts | 301° |
| 2026-05-05 22:42 | 38.74638 | -90.35552 | 580 ft | 67 kts | 298° |
| 2026-05-05 22:42 | 38.74749 | -90.35862 | 574 ft | 28 kts | 283° |
| 2026-05-05 22:42 | 38.74739 | -90.36021 | 570 ft | 14 kts | 228° |
| 2026-05-05 22:43 | 38.74665 | -90.35988 | 573 ft | 13 kts | 122° |
| 2026-05-05 22:43 | 38.74626 | -90.35885 | 574 ft | 13 kts | 124° |
| 2026-05-05 22:43 | 38.74570 | -90.35801 | 573 ft | 12 kts | 129° |
| 2026-05-05 22:43 | 38.74524 | -90.35710 | 578 ft | 12 kts | 116° |
| 2026-05-05 22:44 | 38.74483 | -90.35617 | 579 ft | 12 kts | 121° |
| 2026-05-05 22:44 | 38.74442 | -90.35529 | 578 ft | 11 kts | 119° |
| 2026-05-05 22:44 | 38.74400 | -90.35443 | 579 ft | 11 kts | 120° |
| 2026-05-05 22:44 | 38.74360 | -90.35359 | 579 ft | 11 kts | 124° |
| 2026-05-05 22:45 | 38.74316 | -90.35278 | 580 ft | 11 kts | 126° |
| 2026-05-05 22:45 | 38.74246 | -90.35284 | 579 ft | 11 kts | 212° |
| 2026-05-05 22:45 | 38.74178 | -90.35341 | 580 ft | 13 kts | 211° |
| 2026-05-05 22:45 | 38.74101 | -90.35401 | 581 ft | 12 kts | 214° |
| 2026-05-05 22:46 | 38.74025 | -90.35450 | 579 ft | 12 kts | 187° |
| 2026-05-05 22:46 | 38.73949 | -90.35488 | 581 ft | 12 kts | 235° |
| 2026-05-05 22:46 | 38.73918 | -90.35590 | 575 ft | 12 kts | 259° |
| 2026-05-05 22:46 | 38.73901 | -90.35699 | 572 ft | 13 kts | 255° |
| 2026-05-05 22:47 | 38.73866 | -90.35802 | 571 ft | 9 kts | 243° |
| 2026-05-05 22:47 | 38.73842 | -90.35845 | 573 ft | 6 kts | 229° |
| 2026-05-05 22:47 | 38.73822 | -90.35875 | 572 ft | 3 kts | 232° |
| 2026-05-05 22:47 | 38.73816 | -90.35885 | 573 ft | 0 kts | 233° |
| 2026-05-05 22:48 | 38.73815 | -90.35887 | 573 ft | 0 kts | 233° |